createdAt,value
2023-04-16T00:01:04.927Z,102248.97
2023-04-16T00:03:31.561Z,102248.22
2023-04-16T00:05:59.282Z,102253.88
2023-04-16T00:08:25.966Z,102254.28
2023-04-16T00:10:55.579Z,102262.19
2023-04-16T00:13:22.732Z,102252.00
2023-04-16T00:15:49.260Z,102256.50
2023-04-16T00:18:15.735Z,102256.50
2023-04-16T00:20:42.258Z,102258.34
2023-04-16T00:23:08.785Z,102253.06
2023-04-16T00:25:35.316Z,102264.78
2023-04-16T00:28:01.768Z,102254.97
2023-04-16T00:30:28.232Z,102248.25
2023-04-16T00:32:54.716Z,102261.78
2023-04-16T00:35:21.404Z,102262.56
2023-04-16T00:37:47.853Z,102261.44
2023-04-16T00:40:14.305Z,102259.50
2023-04-16T00:42:40.804Z,102254.59
2023-04-16T00:45:07.944Z,102259.91
2023-04-16T00:47:34.578Z,102262.19
2023-04-16T00:50:02.820Z,102259.13
2023-04-16T00:52:29.650Z,102261.00
2023-04-16T00:54:56.453Z,102256.50
2023-04-16T00:57:24.030Z,102260.97
2023-04-16T00:59:50.575Z,102261.00
2023-04-16T01:02:17.608Z,102252.75
2023-04-16T01:04:44.276Z,102249.31
2023-04-16T01:07:11.248Z,102248.97
2023-04-16T01:09:37.706Z,102250.84
2023-04-16T01:12:04.279Z,102253.88
2023-04-16T01:14:36.143Z,102254.63
2023-04-16T01:17:03.885Z,102249.25
2023-04-16T01:19:36.359Z,102257.16
2023-04-16T01:22:03.986Z,102252.25
2023-04-16T01:24:31.172Z,102245.09
2023-04-16T01:26:59.368Z,102251.19
2023-04-16T01:29:26.470Z,102251.13
2023-04-16T01:31:53.244Z,102252.25
2023-04-16T01:34:19.904Z,102262.84
2023-04-16T01:36:46.389Z,102255.63
2023-04-16T01:39:15.654Z,102260.53
2023-04-16T01:41:43.682Z,102262.78
2023-04-16T01:44:10.524Z,102256.41
2023-04-16T01:46:37.844Z,102256.31
2023-04-16T01:49:05.875Z,102260.50
2023-04-16T01:51:32.482Z,102263.13
2023-04-16T01:53:59.131Z,102262.75
2023-04-16T01:56:25.824Z,102267.25
2023-04-16T01:58:52.940Z,102263.13
2023-04-16T02:01:20.000Z,102266.53
2023-04-16T02:03:47.360Z,102266.13
2023-04-16T02:06:14.771Z,102265.41
2023-04-16T02:08:41.817Z,102268.78
2023-04-16T02:11:08.441Z,102269.56
2023-04-16T02:13:35.070Z,102261.22
2023-04-16T02:16:02.584Z,102260.88
2023-04-16T02:18:29.199Z,102267.00
2023-04-16T02:20:58.596Z,102265.47
2023-04-16T02:23:25.226Z,102263.53
2023-04-16T02:25:51.703Z,102264.31
2023-04-16T02:28:18.252Z,102265.06
2023-04-16T02:30:44.762Z,102259.41
2023-04-16T02:33:12.150Z,102264.31
2023-04-16T02:35:40.099Z,102265.00
2023-04-16T02:38:07.730Z,102260.88
2023-04-16T02:40:34.329Z,102264.66
2023-04-16T02:43:00.964Z,102261.25
2023-04-16T02:45:27.935Z,102254.53
2023-04-16T02:47:54.442Z,102261.72
2023-04-16T02:50:21.100Z,102262.84
2023-04-16T02:52:47.679Z,102269.66
2023-04-16T02:55:14.154Z,102277.78
2023-04-16T02:57:42.442Z,102272.91
2023-04-16T03:00:09.866Z,102276.72
2023-04-16T03:02:36.504Z,102270.34
2023-04-16T03:05:03.567Z,102278.66
2023-04-16T03:07:30.251Z,102278.69
2023-04-16T03:09:56.874Z,102279.47
2023-04-16T03:12:23.391Z,102276.81
2023-04-16T03:14:51.778Z,102284.38
2023-04-16T03:17:18.333Z,102281.34
2023-04-16T03:19:44.807Z,102284.72
2023-04-16T03:22:11.294Z,102286.97
2023-04-16T03:24:38.241Z,102282.09
2023-04-16T03:27:04.729Z,102284.72
2023-04-16T03:29:31.201Z,102298.28
2023-04-16T03:31:57.737Z,102286.59
2023-04-16T03:34:24.382Z,102293.00
2023-04-16T03:36:53.947Z,102300.53
2023-04-16T03:39:20.624Z,102299.41
2023-04-16T03:41:47.062Z,102299.31
2023-04-16T03:44:13.500Z,102294.13
2023-04-16T03:46:39.960Z,102295.22
2023-04-16T03:49:06.693Z,102299.75
2023-04-16T03:51:33.159Z,102289.09
2023-04-16T03:53:59.654Z,102294.34
2023-04-16T03:56:26.263Z,102299.63
2023-04-16T03:58:52.718Z,102294.34
2023-04-16T04:01:19.186Z,102295.50
2023-04-16T04:03:46.005Z,102297.75
2023-04-16T04:06:12.642Z,102300.72
2023-04-16T04:08:39.117Z,102300.78
2023-04-16T04:11:05.669Z,102301.19
2023-04-16T04:13:32.109Z,102298.56
2023-04-16T04:15:58.739Z,102301.19
2023-04-16T04:18:25.652Z,102295.91
2023-04-16T04:20:52.555Z,102299.31
2023-04-16T04:23:18.994Z,102298.13
2023-04-16T04:25:45.509Z,102301.53
2023-04-16T04:28:12.013Z,102300.78
2023-04-16T04:30:38.464Z,102307.63
2023-04-16T04:33:05.042Z,102307.22
2023-04-16T04:35:31.542Z,102314.38
2023-04-16T04:37:57.987Z,102314.28
2023-04-16T04:40:24.544Z,102313.94
2023-04-16T04:42:50.962Z,102315.81
2023-04-16T04:45:17.460Z,102320.75
2023-04-16T04:47:43.996Z,102326.00
2023-04-16T04:50:10.849Z,102322.28
2023-04-16T04:52:37.313Z,102325.59
2023-04-16T04:55:04.019Z,102326.66
2023-04-16T04:57:30.462Z,102331.25
2023-04-16T04:59:56.902Z,102326.31
2023-04-16T05:02:23.443Z,102326.75
2023-04-16T05:04:50.041Z,102328.59
2023-04-16T05:07:16.518Z,102325.56
2023-04-16T05:09:42.976Z,102337.53
2023-04-16T05:12:09.466Z,102327.31
2023-04-16T05:14:36.385Z,102336.44
2023-04-16T05:17:02.941Z,102336.09
2023-04-16T05:19:29.719Z,102327.34
2023-04-16T05:21:56.317Z,102329.22
2023-04-16T05:24:23.253Z,102337.53
2023-04-16T05:26:49.796Z,102340.47
2023-04-16T05:29:16.240Z,102336.72
2023-04-16T05:31:42.781Z,102338.94
2023-04-16T05:34:09.266Z,102340.47
2023-04-16T05:36:35.743Z,102341.97
2023-04-16T05:39:02.258Z,102346.56
2023-04-16T05:41:28.843Z,102343.91
2023-04-16T05:43:55.282Z,102342.75
2023-04-16T05:46:21.788Z,102357.06
2023-04-16T05:48:48.300Z,102359.31
2023-04-16T05:51:14.735Z,102358.09
2023-04-16T05:53:41.751Z,102356.97
2023-04-16T05:56:08.685Z,102364.19
2023-04-16T05:58:35.244Z,102366.41
2023-04-16T06:01:01.837Z,102363.44
2023-04-16T06:03:28.390Z,102369.09
2023-04-16T06:05:55.077Z,102364.25
2023-04-16T06:08:21.576Z,102368.75
2023-04-16T06:10:48.453Z,102370.69
2023-04-16T06:13:14.917Z,102373.31
2023-04-16T06:15:41.411Z,102369.16
2023-04-16T06:18:07.901Z,102374.44
2023-04-16T06:20:34.434Z,102377.75
2023-04-16T06:23:01.097Z,102379.69
2023-04-16T06:25:28.703Z,102379.69
2023-04-16T06:27:55.333Z,102384.13
2023-04-16T06:30:21.826Z,102392.13
2023-04-16T06:32:49.432Z,102389.13
2023-04-16T06:35:16.199Z,102386.56
2023-04-16T06:37:42.634Z,102389.22
2023-04-16T06:40:09.443Z,102386.63
2023-04-16T06:42:36.157Z,102390.09
2023-04-16T06:45:02.713Z,102390.53
2023-04-16T06:47:29.190Z,102397.28
2023-04-16T06:49:55.680Z,102392.09
2023-04-16T06:52:22.144Z,102400.53
2023-04-16T06:54:48.699Z,102401.66
2023-04-16T06:57:16.115Z,102401.66
2023-04-16T06:59:42.785Z,102409.22
2023-04-16T07:02:10.654Z,102413.78
2023-04-16T07:04:37.321Z,102412.00
2023-04-16T07:07:03.964Z,102420.28
2023-04-16T07:09:30.977Z,102422.16
2023-04-16T07:11:57.508Z,102418.75
2023-04-16T07:14:24.000Z,102420.28
2023-04-16T07:16:50.547Z,102424.84
2023-04-16T07:19:17.038Z,102430.13
2023-04-16T07:21:43.828Z,102430.88
2023-04-16T07:24:11.672Z,102435.34
2023-04-16T07:26:38.125Z,102428.25
2023-04-16T07:29:04.609Z,102440.66
2023-04-16T07:31:31.130Z,102435.81
2023-04-16T07:33:58.589Z,102437.00
2023-04-16T07:36:25.173Z,102443.78
2023-04-16T07:38:51.606Z,102444.56
2023-04-16T07:41:18.093Z,102444.91
2023-04-16T07:43:44.525Z,102444.50
2023-04-16T07:46:11.022Z,102441.09
2023-04-16T07:48:37.472Z,102444.41
2023-04-16T07:51:03.948Z,102446.72
2023-04-16T07:53:30.511Z,102456.09
2023-04-16T07:55:56.940Z,102459.13
2023-04-16T07:58:23.441Z,102456.50
2023-04-16T08:00:51.035Z,102460.66
2023-04-16T08:03:18.306Z,102458.38
2023-04-16T08:05:45.019Z,102463.28
2023-04-16T08:08:11.548Z,102458.72
2023-04-16T08:10:39.112Z,102464.00
2023-04-16T08:13:05.922Z,102473.03
2023-04-16T08:15:32.530Z,102479.41
2023-04-16T08:17:59.698Z,102475.25
2023-04-16T08:20:26.450Z,102477.94
2023-04-16T08:22:54.878Z,102473.66
2023-04-16T08:25:22.824Z,102479.84
2023-04-16T08:27:49.309Z,102490.13
2023-04-16T08:30:16.698Z,102481.84
2023-04-16T08:32:43.638Z,102487.16
2023-04-16T08:35:10.345Z,102489.09
2023-04-16T08:37:36.755Z,102488.41
2023-04-16T08:40:03.610Z,102491.47
2023-04-16T08:42:37.074Z,102489.25
2023-04-16T08:45:14.897Z,102488.16
2023-04-16T08:47:41.872Z,102497.56
2023-04-16T08:50:11.237Z,102502.63
2023-04-16T08:52:39.949Z,102500.78
2023-04-16T08:55:12.571Z,102499.25
2023-04-16T08:57:47.145Z,102506.53
2023-04-16T09:00:14.268Z,102497.88
2023-04-16T09:02:41.186Z,102508.13
2023-04-16T09:05:09.543Z,102507.38
2023-04-16T09:07:36.737Z,102507.09
2023-04-16T09:10:03.291Z,102513.59
2023-04-16T09:12:31.374Z,102507.97
2023-04-16T09:15:01.139Z,102517.09
2023-04-16T09:17:28.169Z,102521.91
2023-04-16T09:19:55.081Z,102519.72
2023-04-16T09:22:21.567Z,102505.81
2023-04-16T09:24:48.168Z,102511.03
2023-04-16T09:27:14.582Z,102520.38
2023-04-16T09:29:41.588Z,102519.72
2023-04-16T09:32:10.263Z,102528.03
2023-04-16T09:34:57.386Z,102527.69
2023-04-16T09:37:24.747Z,102535.25
2023-04-16T09:39:59.471Z,102538.66
2023-04-16T09:42:33.501Z,102533.72
2023-04-16T09:45:01.375Z,102539.34
2023-04-16T09:47:43.227Z,102544.28
2023-04-16T09:50:16.418Z,102543.09
2023-04-16T09:52:48.467Z,102545.66
2023-04-16T09:55:15.396Z,102544.56
2023-04-16T09:57:41.912Z,102549.00
2023-04-16T10:00:09.506Z,102548.59
2023-04-16T10:02:39.351Z,102549.69
2023-04-16T10:05:06.448Z,102550.41
2023-04-16T10:07:36.716Z,102551.88
2023-04-16T10:10:04.412Z,102555.28
2023-04-16T10:12:32.818Z,102556.13
2023-04-16T10:14:59.503Z,102565.56
2023-04-16T10:17:27.333Z,102554.66
2023-04-16T10:19:54.750Z,102560.75
2023-04-16T10:22:21.491Z,102558.56
2023-04-16T10:24:49.140Z,102555.97
2023-04-16T10:27:17.242Z,102552.63
2023-04-16T10:29:44.674Z,102563.59
2023-04-16T10:32:11.769Z,102560.69
2023-04-16T10:34:38.997Z,102560.72
2023-04-16T10:37:05.577Z,102561.09
2023-04-16T10:39:37.527Z,102564.06
2023-04-16T10:42:12.125Z,102560.69
2023-04-16T10:44:43.517Z,102560.25
2023-04-16T10:47:13.255Z,102561.78
2023-04-16T10:49:40.410Z,102558.09
2023-04-16T10:52:11.531Z,102569.41
2023-04-16T10:54:38.292Z,102562.69
2023-04-16T10:57:28.971Z,102560.41
2023-04-16T10:59:55.399Z,102573.59
2023-04-16T11:02:29.195Z,102566.00
2023-04-16T11:04:57.338Z,102568.75
2023-04-16T11:07:34.770Z,102566.09
2023-04-16T11:10:05.166Z,102565.22
2023-04-16T11:12:39.356Z,102574.03
2023-04-16T11:15:14.037Z,102567.47
2023-04-16T11:17:47.740Z,102565.94
2023-04-16T11:20:23.452Z,102572.97
2023-04-16T11:22:51.320Z,102566.94
2023-04-16T11:25:29.489Z,102571.03
2023-04-16T11:27:58.717Z,102569.53
2023-04-16T11:30:34.075Z,102566.50
2023-04-16T11:33:18.776Z,102566.59
2023-04-16T11:35:46.068Z,102573.06
2023-04-16T11:38:12.576Z,102570.69
2023-04-16T11:40:38.990Z,102572.34
2023-04-16T11:43:14.377Z,102571.53
2023-04-16T11:45:57.307Z,102574.03
2023-04-16T11:48:24.022Z,102576.72
2023-04-16T11:50:58.004Z,102573.31
2023-04-16T11:53:24.785Z,102590.25
2023-04-16T11:55:51.307Z,102572.94
2023-04-16T11:58:17.921Z,102580.06
2023-04-16T12:00:45.113Z,102575.94
2023-04-16T12:03:11.912Z,102572.56
2023-04-16T12:05:40.774Z,102589.91
2023-04-16T12:08:12.292Z,102590.19
2023-04-16T12:10:54.025Z,102578.94
2023-04-16T12:13:20.645Z,102581.19
2023-04-16T12:15:52.101Z,102590.97
2023-04-16T12:18:20.556Z,102588.75
2023-04-16T12:20:47.575Z,102585.34
2023-04-16T12:23:33.671Z,102591.38
2023-04-16T12:26:10.609Z,102595.13
2023-04-16T12:28:41.602Z,102595.13
2023-04-16T12:31:08.468Z,102591.72
2023-04-16T12:33:35.139Z,102594.16
2023-04-16T12:36:03.510Z,102602.78
2023-04-16T12:38:29.998Z,102596.03
2023-04-16T12:40:57.668Z,102596.84
2023-04-16T12:43:25.107Z,102591.22
2023-04-16T12:45:51.616Z,102596.94
2023-04-16T12:48:18.095Z,102603.66
2023-04-16T12:50:44.708Z,102599.13
2023-04-16T12:53:11.683Z,102597.25
2023-04-16T12:55:38.174Z,102592.34
2023-04-16T12:58:04.593Z,102605.53
2023-04-16T13:00:31.126Z,102603.59
2023-04-16T13:02:57.760Z,102600.19
2023-04-16T13:05:24.306Z,102602.13
2023-04-16T13:07:50.964Z,102593.88
2023-04-16T13:10:17.487Z,102590.81
2023-04-16T13:12:43.927Z,102597.59
2023-04-16T13:15:10.772Z,102592.69
2023-04-16T13:17:37.353Z,102592.56
2023-04-16T13:20:04.079Z,102593.19
2023-04-16T13:22:30.552Z,102594.31
2023-04-16T13:24:57.127Z,102594.97
2023-04-16T13:27:23.603Z,102595.06
2023-04-16T13:29:50.077Z,102591.38
2023-04-16T13:32:17.360Z,102593.25
2023-04-16T13:34:43.776Z,102583.81
2023-04-16T13:37:10.267Z,102585.34
2023-04-16T13:39:36.728Z,102589.59
2023-04-16T13:42:03.259Z,102585.69
2023-04-16T13:44:29.722Z,102585.97
2023-04-16T13:46:56.678Z,102588.28
2023-04-16T13:49:23.522Z,102586.66
2023-04-16T13:51:50.633Z,102592.69
2023-04-16T13:54:17.094Z,102592.44
2023-04-16T13:56:43.956Z,102594.34
2023-04-16T13:59:10.764Z,102592.06
2023-04-16T14:01:37.474Z,102588.75
2023-04-16T14:04:06.854Z,102594.00
2023-04-16T14:06:34.800Z,102597.41
2023-04-16T14:09:01.870Z,102593.94
2023-04-16T14:11:28.505Z,102601.25
2023-04-16T14:13:55.064Z,102591.84
2023-04-16T14:16:21.656Z,102592.63
2023-04-16T14:18:48.159Z,102590.34
2023-04-16T14:21:14.615Z,102585.44
2023-04-16T14:23:41.202Z,102586.19
2023-04-16T14:26:07.672Z,102587.56
2023-04-16T14:28:35.508Z,102586.66
2023-04-16T14:31:01.986Z,102584.53
2023-04-16T14:33:28.408Z,102589.09
2023-04-16T14:35:54.869Z,102587.28
2023-04-16T14:38:21.410Z,102589.97
2023-04-16T14:40:48.574Z,102582.88
2023-04-16T14:43:15.030Z,102587.50
2023-04-16T14:45:41.826Z,102575.56
2023-04-16T14:48:08.437Z,102584.38
2023-04-16T14:50:38.890Z,102580.75
2023-04-16T14:53:05.738Z,102582.75
2023-04-16T14:55:32.704Z,102587.03
2023-04-16T14:57:59.802Z,102590.56
2023-04-16T15:00:27.485Z,102588.88
2023-04-16T15:02:55.067Z,102587.44
2023-04-16T15:05:22.216Z,102584.50
2023-04-16T15:07:48.697Z,102583.88
2023-04-16T15:10:15.537Z,102580.94
2023-04-16T15:12:41.966Z,102580.22
2023-04-16T15:15:09.204Z,102582.84
2023-04-16T15:17:35.942Z,102580.66
2023-04-16T15:20:04.745Z,102582.25
2023-04-16T15:22:31.388Z,102585.25
2023-04-16T15:24:57.882Z,102574.97
2023-04-16T15:27:24.411Z,102581.44
2023-04-16T15:29:51.020Z,102577.25
2023-04-16T15:32:17.507Z,102578.69
2023-04-16T15:34:44.054Z,102577.16
2023-04-16T15:37:10.721Z,102576.78
2023-04-16T15:39:37.209Z,102575.94
2023-04-16T15:42:07.770Z,102576.28
2023-04-16T15:44:34.685Z,102581.53
2023-04-16T15:47:01.258Z,102579.22
2023-04-16T15:49:27.783Z,102585.22
2023-04-16T15:51:54.388Z,102579.94
2023-04-16T15:54:21.503Z,102585.94
2023-04-16T15:56:48.133Z,102586.28
2023-04-16T15:59:14.606Z,102584.34
2023-04-16T16:01:41.214Z,102582.47
2023-04-16T16:04:08.319Z,102583.91
2023-04-16T16:06:35.424Z,102579.47
2023-04-16T16:09:01.914Z,102589.63
2023-04-16T16:11:28.438Z,102581.28
2023-04-16T16:13:55.092Z,102579.34
2023-04-16T16:16:22.006Z,102578.97
2023-04-16T16:18:48.750Z,102577.47
2023-04-16T16:21:15.263Z,102580.88
2023-04-16T16:23:42.032Z,102580.81
2023-04-16T16:26:09.277Z,102579.22
2023-04-16T16:28:38.708Z,102583.81
2023-04-16T16:31:06.032Z,102583.41
2023-04-16T16:33:33.009Z,102589.00
2023-04-16T16:35:59.402Z,102581.47
2023-04-16T16:38:26.201Z,102580.28
2023-04-16T16:40:52.703Z,102582.53
2023-04-16T16:43:19.270Z,102585.56
2023-04-16T16:45:46.513Z,102581.00
2023-04-16T16:48:12.959Z,102588.50
2023-04-16T16:50:39.422Z,102582.09
2023-04-16T16:53:05.935Z,102586.19
2023-04-16T16:55:32.374Z,102585.50
2023-04-16T16:58:01.944Z,102582.09
2023-04-16T17:00:28.551Z,102589.19
2023-04-16T17:02:55.182Z,102596.69
2023-04-16T17:05:21.890Z,102593.31
2023-04-16T17:07:48.306Z,102589.53
2023-04-16T17:10:20.190Z,102598.56
2023-04-16T17:12:50.447Z,102605.00
2023-04-16T17:15:18.578Z,102596.34
2023-04-16T17:17:47.359Z,102597.81
2023-04-16T17:20:14.265Z,102603.84
2023-04-16T17:22:40.815Z,102599.69
2023-04-16T17:25:08.217Z,102599.63
2023-04-16T17:27:34.825Z,102611.56
2023-04-16T17:30:01.982Z,102610.47
2023-04-16T17:32:29.677Z,102599.13
2023-04-16T17:34:56.470Z,102617.72
2023-04-16T17:37:23.309Z,102623.28
2023-04-16T17:39:50.040Z,102619.13
2023-04-16T17:42:16.535Z,102626.63
2023-04-16T17:44:42.986Z,102626.63
2023-04-16T17:47:09.404Z,102629.25
2023-04-16T17:49:35.955Z,102631.91
2023-04-16T17:52:02.402Z,102630.38
2023-04-16T17:54:28.835Z,102637.13
2023-04-16T17:56:55.261Z,102638.16
2023-04-16T17:59:21.759Z,102638.16
2023-04-16T18:01:49.538Z,102638.09
2023-04-16T18:04:16.466Z,102638.00
2023-04-16T18:06:43.290Z,102631.69
2023-04-16T18:09:09.782Z,102644.06
2023-04-16T18:11:36.271Z,102641.50
2023-04-16T18:14:02.783Z,102639.97
2023-04-16T18:16:29.226Z,102641.06
2023-04-16T18:18:55.725Z,102645.63
2023-04-16T18:21:22.409Z,102652.88
2023-04-16T18:23:48.928Z,102647.69
2023-04-16T18:26:18.615Z,102660.59
2023-04-16T18:28:47.464Z,102661.44
2023-04-16T18:31:13.957Z,102652.44
2023-04-16T18:33:55.661Z,102663.50
2023-04-16T18:36:23.656Z,102663.22
2023-04-16T18:39:00.828Z,102662.84
2023-04-16T18:41:36.605Z,102671.31
2023-04-16T18:44:03.027Z,102675.97
2023-04-16T18:46:29.453Z,102680.19
2023-04-16T18:48:56.032Z,102676.50
2023-04-16T18:51:22.480Z,102674.31
2023-04-16T18:53:48.894Z,102675.16
2023-04-16T18:56:15.468Z,102678.97
2023-04-16T18:58:41.962Z,102682.44
2023-04-16T19:01:11.333Z,102688.19
2023-04-16T19:03:38.442Z,102687.50
2023-04-16T19:06:05.918Z,102689.78
2023-04-16T19:08:32.395Z,102689.06
2023-04-16T19:10:58.872Z,102692.53
2023-04-16T19:13:25.373Z,102694.84
2023-04-16T19:15:51.838Z,102693.00
2023-04-16T19:18:18.302Z,102697.56
2023-04-16T19:20:44.739Z,102702.09
2023-04-16T19:23:11.513Z,102695.31
2023-04-16T19:25:39.590Z,102691.13
2023-04-16T19:28:06.072Z,102686.13
2023-04-16T19:30:32.691Z,102690.63
2023-04-16T19:32:59.170Z,102688.34
2023-04-16T19:35:25.812Z,102690.19
2023-04-16T19:37:52.298Z,102691.25
2023-04-16T19:40:18.823Z,102690.41
2023-04-16T19:42:45.492Z,102686.97
2023-04-16T19:45:11.992Z,102688.06
2023-04-16T19:47:38.612Z,102702.41
2023-04-16T19:50:05.881Z,102695.91
2023-04-16T19:52:37.389Z,102694.03
2023-04-16T19:55:04.775Z,102695.53
2023-04-16T19:57:31.183Z,102696.97
2023-04-16T19:59:57.606Z,102700.34
2023-04-16T20:02:24.193Z,102696.50
2023-04-16T20:04:50.838Z,102698.31
2023-04-16T20:07:17.522Z,102703.97
2023-04-16T20:09:44.012Z,102704.66
2023-04-16T20:12:10.500Z,102705.28
2023-04-16T20:14:36.954Z,102710.13
2023-04-16T20:17:03.559Z,102702.59
2023-04-16T20:19:31.572Z,102705.13
2023-04-16T20:21:57.993Z,102699.41
2023-04-16T20:24:24.598Z,102708.75
2023-04-16T20:26:51.023Z,102705.28
2023-04-16T20:29:17.433Z,102697.69
2023-04-16T20:31:45.882Z,102699.91
2023-04-16T20:34:12.347Z,102697.25
2023-04-16T20:36:38.850Z,102702.09
2023-04-16T20:39:07.900Z,102699.78
2023-04-16T20:41:34.370Z,102692.25
2023-04-16T20:44:05.366Z,102696.31
2023-04-16T20:46:34.185Z,102693.69
2023-04-16T20:49:03.340Z,102692.88
2023-04-16T20:51:29.770Z,102684.53
2023-04-16T20:53:56.332Z,102687.44
2023-04-16T20:56:22.744Z,102686.69
2023-04-16T20:58:49.224Z,102684.38
2023-04-16T21:01:16.297Z,102679.44
2023-04-16T21:03:42.984Z,102679.03
2023-04-16T21:06:09.516Z,102676.06
2023-04-16T21:08:35.958Z,102682.47
2023-04-16T21:11:02.389Z,102675.19
2023-04-16T21:13:28.851Z,102678.19
2023-04-16T21:15:55.356Z,102675.56
2023-04-16T21:18:21.905Z,102678.53
2023-04-16T21:20:48.330Z,102686.38
2023-04-16T21:23:14.806Z,102683.00
2023-04-16T21:25:41.297Z,102677.97
2023-04-16T21:28:07.750Z,102674.94
2023-04-16T21:30:34.214Z,102673.41
2023-04-16T21:33:00.871Z,102674.16
2023-04-16T21:35:27.358Z,102682.41
2023-04-16T21:37:53.783Z,102678.31
2023-04-16T21:40:20.350Z,102678.69
2023-04-16T21:42:46.787Z,102680.94
2023-04-16T21:45:14.539Z,102681.22
2023-04-16T21:47:41.201Z,102675.63
2023-04-16T21:50:08.336Z,102683.13
2023-04-16T21:52:40.159Z,102691.03
2023-04-16T21:55:09.162Z,102684.97
2023-04-16T21:57:35.593Z,102690.66
2023-04-16T22:00:02.329Z,102688.66
2023-04-16T22:02:29.055Z,102685.19
2023-04-16T22:04:55.665Z,102688.91
2023-04-16T22:07:22.140Z,102686.53
2023-04-16T22:09:48.594Z,102684.41
2023-04-16T22:12:15.020Z,102684.03
2023-04-16T22:14:49.143Z,102678.00
2023-04-16T22:17:27.703Z,102679.78
2023-04-16T22:19:54.569Z,102678.38
2023-04-16T22:22:21.888Z,102681.66
2023-04-16T22:24:48.787Z,102678.38
2023-04-16T22:27:15.589Z,102679.16
2023-04-16T22:29:42.150Z,102676.03
2023-04-16T22:32:08.763Z,102679.53
2023-04-16T22:34:35.208Z,102677.63
2023-04-16T22:37:03.021Z,102680.31
2023-04-16T22:39:30.786Z,102682.13
2023-04-16T22:41:57.256Z,102670.66
2023-04-16T22:44:23.658Z,102680.44
2023-04-16T22:46:50.084Z,102678.91
2023-04-16T22:49:16.615Z,102681.94
2023-04-16T22:51:43.397Z,102679.72
2023-04-16T22:54:13.670Z,102677.22
2023-04-16T22:56:40.772Z,102674.97
2023-04-16T22:59:07.599Z,102673.81
2023-04-16T23:01:34.954Z,102673.03
2023-04-16T23:04:01.562Z,102677.22
2023-04-16T23:06:28.001Z,102670.47
2023-04-16T23:08:54.424Z,102680.25
2023-04-16T23:11:20.888Z,102678.72
2023-04-16T23:13:47.359Z,102679.00
2023-04-16T23:16:13.846Z,102679.47
2023-04-16T23:18:40.378Z,102681.72
2023-04-16T23:21:06.819Z,102683.97
2023-04-16T23:23:33.388Z,102676.84
2023-04-16T23:26:02.590Z,102678.31
2023-04-16T23:28:28.995Z,102682.47
2023-04-16T23:30:55.693Z,102684.41
2023-04-16T23:33:22.226Z,102687.66
2023-04-16T23:35:48.655Z,102682.06
2023-04-16T23:38:15.141Z,102688.44
2023-04-16T23:40:41.553Z,102683.91
2023-04-16T23:43:07.971Z,102682.38
2023-04-16T23:45:34.416Z,102686.16
2023-04-16T23:48:01.063Z,102696.31
2023-04-16T23:50:27.517Z,102695.13
2023-04-16T23:52:53.989Z,102698.19
2023-04-16T23:55:20.686Z,102690.53
2023-04-16T23:57:47.188Z,102701.97
